createdAt,value
2023-04-14T00:00:10.300Z,9.33
2023-04-14T00:02:37.210Z,9.50
2023-04-14T00:05:04.893Z,8.90
2023-04-14T00:07:33.841Z,9.40
2023-04-14T00:10:03.057Z,9.20
2023-04-14T00:12:29.884Z,9.60
2023-04-14T00:14:56.636Z,9.47
2023-04-14T00:17:23.429Z,8.40
2023-04-14T00:19:52.660Z,8.47
2023-04-14T00:22:22.235Z,9.50
2023-04-14T00:24:50.822Z,8.63
2023-04-14T00:27:17.598Z,9.20
2023-04-14T00:29:44.341Z,8.67
2023-04-14T00:32:16.767Z,8.70
2023-04-14T00:34:43.521Z,8.90
2023-04-14T00:37:10.565Z,8.80
2023-04-14T00:39:39.664Z,8.60
2023-04-14T00:42:08.537Z,8.93
2023-04-14T00:44:35.383Z,9.03
2023-04-14T00:47:02.257Z,8.67
2023-04-14T00:49:29.025Z,9.10
2023-04-14T00:51:57.054Z,9.13
2023-04-14T00:54:26.572Z,8.70
2023-04-14T00:56:58.004Z,8.30
2023-04-14T00:59:28.851Z,8.90
2023-04-14T01:01:56.030Z,8.63
2023-04-14T01:04:23.215Z,8.83
2023-04-14T01:06:54.951Z,8.77
2023-04-14T01:09:21.751Z,8.57
2023-04-14T01:12:09.929Z,8.37
2023-04-14T01:15:04.201Z,8.90
2023-04-14T01:17:37.148Z,8.60
2023-04-14T01:20:27.444Z,8.67
2023-04-14T01:23:31.973Z,8.70
2023-04-14T01:26:20.136Z,9.27
2023-04-14T01:29:08.073Z,8.60
2023-04-14T01:31:41.514Z,8.73
2023-04-14T01:34:25.425Z,8.30
2023-04-14T01:36:57.190Z,8.43
2023-04-14T01:39:33.116Z,8.23
2023-04-14T01:41:59.915Z,8.43
2023-04-14T01:44:27.021Z,8.90
2023-04-14T01:46:56.596Z,8.73
2023-04-14T01:49:23.456Z,8.13
2023-04-14T01:51:55.416Z,8.10
2023-04-14T01:54:22.195Z,8.87
2023-04-14T01:56:51.169Z,8.07
2023-04-14T01:59:19.994Z,8.90
2023-04-14T02:01:50.472Z,8.47
2023-04-14T02:04:19.043Z,8.03
2023-04-14T02:06:45.964Z,8.60
2023-04-14T02:09:13.223Z,8.37
2023-04-14T02:11:43.330Z,8.90
2023-04-14T02:14:10.430Z,9.33
2023-04-14T02:16:37.281Z,8.93
2023-04-14T02:19:04.725Z,9.20
2023-04-14T02:21:31.595Z,8.73
2023-04-14T02:23:58.333Z,9.90
2023-04-14T02:26:28.137Z,9.47
2023-04-14T02:29:03.000Z,9.07
2023-04-14T02:31:30.808Z,9.03
2023-04-14T02:34:00.150Z,9.10
2023-04-14T02:36:33.992Z,8.97
2023-04-14T02:39:08.654Z,8.93
2023-04-14T02:41:35.776Z,8.40
2023-04-14T02:44:09.014Z,8.80
2023-04-14T02:46:37.963Z,8.20
2023-04-14T02:49:06.203Z,8.27
2023-04-14T02:51:36.617Z,8.57
2023-04-14T02:54:06.103Z,9.30
2023-04-14T02:56:35.668Z,9.13
2023-04-14T02:59:02.887Z,8.73
2023-04-14T03:01:33.268Z,8.47
2023-04-14T03:04:07.350Z,8.80
2023-04-14T03:06:36.525Z,9.10
2023-04-14T03:09:05.395Z,8.80
2023-04-14T03:11:35.409Z,8.90
2023-04-14T03:14:02.186Z,9.27
2023-04-14T03:16:31.554Z,9.50
2023-04-14T03:19:03.528Z,10.20
2023-04-14T03:21:33.597Z,10.23
2023-04-14T03:24:00.750Z,10.00
2023-04-14T03:26:27.541Z,10.87
2023-04-14T03:28:54.291Z,11.03
2023-04-14T03:31:21.468Z,11.90
2023-04-14T03:33:48.663Z,12.20
2023-04-14T03:36:15.701Z,12.47
2023-04-14T03:38:44.594Z,12.63
2023-04-14T03:41:11.332Z,12.63
2023-04-14T03:43:38.104Z,12.10
2023-04-14T03:46:06.242Z,12.17
2023-04-14T03:48:34.543Z,12.00
2023-04-14T03:51:05.019Z,12.30
2023-04-14T03:53:31.950Z,12.17
2023-04-14T03:56:01.073Z,12.13
2023-04-14T03:58:27.860Z,11.07
2023-04-14T04:00:54.619Z,11.87
2023-04-14T04:03:21.873Z,11.60
2023-04-14T04:05:48.721Z,11.83
2023-04-14T04:08:21.033Z,12.50
2023-04-14T04:10:47.789Z,12.00
2023-04-14T04:13:16.976Z,11.40
2023-04-14T04:15:48.598Z,13.23
2023-04-14T04:18:15.861Z,13.57
2023-04-14T04:20:42.585Z,13.67
2023-04-14T04:23:09.381Z,14.07
2023-04-14T04:25:36.635Z,15.40
2023-04-14T04:28:03.490Z,15.23
2023-04-14T04:30:30.637Z,15.50
2023-04-14T04:33:03.931Z,16.57
2023-04-14T04:35:35.783Z,15.83
2023-04-14T04:38:05.931Z,16.07
2023-04-14T04:40:41.296Z,16.20
2023-04-14T04:43:08.210Z,15.70
2023-04-14T04:45:58.272Z,17.43
2023-04-14T04:48:25.459Z,18.70
2023-04-14T04:50:54.751Z,18.33
2023-04-14T04:53:23.856Z,18.80
2023-04-14T04:55:50.680Z,20.37
2023-04-14T04:58:19.986Z,21.13
2023-04-14T05:00:49.328Z,21.37
2023-04-14T05:03:16.639Z,21.90
2023-04-14T05:05:43.527Z,21.07
2023-04-14T05:08:13.800Z,21.43
2023-04-14T05:10:46.656Z,21.17
2023-04-14T05:13:13.436Z,21.87
2023-04-14T05:15:40.437Z,21.83
2023-04-14T05:18:07.389Z,21.63
2023-04-14T05:20:36.959Z,20.90
2023-04-14T05:23:03.698Z,23.23
2023-04-14T05:25:32.673Z,20.73
2023-04-14T05:27:59.430Z,21.80
2023-04-14T05:30:26.621Z,22.80
2023-04-14T05:32:53.482Z,24.23
2023-04-14T05:35:20.378Z,24.70
2023-04-14T05:37:49.272Z,22.57
2023-04-14T05:40:16.090Z,22.20
2023-04-14T05:42:42.838Z,22.13
2023-04-14T05:45:10.049Z,22.07
2023-04-14T05:47:37.283Z,20.83
2023-04-14T05:50:04.430Z,22.43
2023-04-14T05:52:36.169Z,20.20
2023-04-14T05:55:02.976Z,20.50
2023-04-14T05:57:32.261Z,21.97
2023-04-14T06:00:01.659Z,20.67
2023-04-14T06:02:28.744Z,21.20
2023-04-14T06:04:56.385Z,21.00
2023-04-14T06:07:24.279Z,19.67
2023-04-14T06:09:53.528Z,19.70
2023-04-14T06:12:20.781Z,19.67
2023-04-14T06:14:51.896Z,18.70
2023-04-14T06:17:21.206Z,18.57
2023-04-14T06:19:50.750Z,19.27
2023-04-14T06:22:19.862Z,18.60
2023-04-14T06:24:46.812Z,17.53
2023-04-14T06:27:14.464Z,18.40
2023-04-14T06:29:43.504Z,18.50
2023-04-14T06:32:10.696Z,17.47
2023-04-14T06:34:39.702Z,16.43
2023-04-14T06:37:06.788Z,16.87
2023-04-14T06:39:33.637Z,15.33
2023-04-14T06:42:01.006Z,16.73
2023-04-14T06:44:30.378Z,15.83
2023-04-14T06:46:57.299Z,15.07
2023-04-14T06:49:26.310Z,15.13
2023-04-14T06:51:53.070Z,15.47
2023-04-14T06:54:22.067Z,13.53
2023-04-14T06:56:48.804Z,13.30
2023-04-14T06:59:15.625Z,12.87
2023-04-14T07:01:44.772Z,13.17
2023-04-14T07:04:14.057Z,13.40
2023-04-14T07:06:43.011Z,12.63
2023-04-14T07:09:09.768Z,11.87
2023-04-14T07:11:40.445Z,11.57
2023-04-14T07:14:07.189Z,12.03
2023-04-14T07:16:33.987Z,11.10
2023-04-14T07:19:00.961Z,11.43
2023-04-14T07:21:27.966Z,11.33
2023-04-14T07:23:57.232Z,10.57
2023-04-14T07:26:26.655Z,11.63
2023-04-14T07:28:55.962Z,10.57
2023-04-14T07:31:22.829Z,9.63
2023-04-14T07:33:49.673Z,10.87
2023-04-14T07:36:18.660Z,9.57
2023-04-14T07:38:45.734Z,10.53
2023-04-14T07:41:12.533Z,10.10
2023-04-14T07:43:40.174Z,9.20
2023-04-14T07:46:09.772Z,9.10
2023-04-14T07:48:37.217Z,9.60
2023-04-14T07:51:06.795Z,9.50
2023-04-14T07:53:40.478Z,9.57
2023-04-14T07:56:09.932Z,9.23
2023-04-14T07:58:39.206Z,9.00
2023-04-14T08:01:06.462Z,8.77
2023-04-14T08:03:33.460Z,7.97
2023-04-14T08:06:02.494Z,8.63
2023-04-14T08:08:29.381Z,8.33
2023-04-14T08:10:56.131Z,8.40
2023-04-14T08:13:27.395Z,8.37
2023-04-14T08:15:56.751Z,7.97
2023-04-14T08:18:23.608Z,7.60
2023-04-14T08:20:52.611Z,8.13
2023-04-14T08:23:20.989Z,9.07
2023-04-14T08:25:48.072Z,8.03
2023-04-14T08:28:15.018Z,8.77
2023-04-14T08:30:41.952Z,8.53
2023-04-14T08:33:08.723Z,8.47
2023-04-14T08:35:42.041Z,7.90
2023-04-14T08:38:09.710Z,8.30
2023-04-14T08:40:43.330Z,7.70
2023-04-14T08:43:12.998Z,8.07
2023-04-14T08:45:40.795Z,8.07
2023-04-14T08:48:12.179Z,7.17
2023-04-14T08:50:45.404Z,7.23
2023-04-14T08:53:12.504Z,6.00
2023-04-14T08:55:42.412Z,6.40
2023-04-14T08:58:12.385Z,6.20
2023-04-14T09:00:43.949Z,6.10
2023-04-14T09:03:16.081Z,5.90
2023-04-14T09:05:45.127Z,5.83
2023-04-14T09:08:11.896Z,6.03
2023-04-14T09:10:38.803Z,5.30
2023-04-14T09:13:06.655Z,5.87
2023-04-14T09:15:36.029Z,5.90
2023-04-14T09:18:02.931Z,5.50
2023-04-14T09:20:38.656Z,4.87
2023-04-14T09:23:09.712Z,5.93
2023-04-14T09:25:38.372Z,6.70
2023-04-14T09:28:05.132Z,6.00
2023-04-14T09:30:34.375Z,5.97
2023-04-14T09:33:10.752Z,5.70
2023-04-14T09:35:50.402Z,5.97
2023-04-14T09:38:32.592Z,5.83
2023-04-14T09:41:01.558Z,5.60
2023-04-14T09:43:29.260Z,6.43
2023-04-14T09:45:57.151Z,5.83
2023-04-14T09:48:26.074Z,6.40
2023-04-14T09:51:05.739Z,6.00
2023-04-14T09:53:36.968Z,5.60
2023-04-14T09:56:08.544Z,5.93
2023-04-14T09:58:46.548Z,5.37
2023-04-14T10:01:15.017Z,6.27
2023-04-14T10:03:46.436Z,6.23
2023-04-14T10:06:21.226Z,5.90
2023-04-14T10:09:01.303Z,6.53
2023-04-14T10:11:35.360Z,6.17
2023-04-14T10:14:06.298Z,6.43
2023-04-14T10:16:33.790Z,6.03
2023-04-14T10:19:03.732Z,6.43
2023-04-14T10:21:30.906Z,5.73
2023-04-14T10:23:57.835Z,6.67
2023-04-14T10:26:24.906Z,6.43
2023-04-14T10:28:52.954Z,6.20
2023-04-14T10:31:37.064Z,5.80
2023-04-14T10:34:11.219Z,5.90
2023-04-14T10:36:38.513Z,5.80
2023-04-14T10:39:08.102Z,5.70
2023-04-14T10:41:43.901Z,5.70
2023-04-14T10:44:28.892Z,5.03
2023-04-14T10:47:03.010Z,10.50
2023-04-14T10:49:39.213Z,7.23
2023-04-14T10:52:13.486Z,6.10
2023-04-14T10:54:57.240Z,6.67
2023-04-14T10:57:27.955Z,5.87
2023-04-14T10:59:55.951Z,5.43
2023-04-14T11:02:24.191Z,5.27
2023-04-14T11:05:09.243Z,4.53
2023-04-14T11:07:46.291Z,4.97
2023-04-14T11:10:24.458Z,4.50
2023-04-14T11:13:05.473Z,4.50
2023-04-14T11:15:48.754Z,4.47
2023-04-14T11:18:30.053Z,4.53
2023-04-14T11:21:10.617Z,3.80
2023-04-14T11:23:37.555Z,4.32
2023-04-14T11:26:13.432Z,4.78
2023-04-14T11:28:42.044Z,4.77
2023-04-14T11:31:12.938Z,4.28
2023-04-14T11:33:41.571Z,4.18
2023-04-14T11:36:10.352Z,4.60
2023-04-14T11:38:40.840Z,4.07
2023-04-14T11:41:08.409Z,4.22
2023-04-14T11:43:37.591Z,4.43
2023-04-14T11:46:05.597Z,4.17
2023-04-14T11:48:32.426Z,4.17
2023-04-14T11:51:03.906Z,3.50
2023-04-14T11:53:31.013Z,4.10
2023-04-14T11:56:00.914Z,4.40
2023-04-14T11:58:28.811Z,4.30
2023-04-14T12:00:57.870Z,3.57
2023-04-14T12:03:29.375Z,3.80
2023-04-14T12:06:01.513Z,3.97
2023-04-14T12:08:34.289Z,4.07
2023-04-14T12:11:16.408Z,4.07
2023-04-14T12:13:47.067Z,3.60
2023-04-14T12:16:16.384Z,4.00
2023-04-14T12:18:45.908Z,3.77
2023-04-14T12:21:17.075Z,3.50
2023-04-14T12:23:48.481Z,3.27
2023-04-14T12:26:17.540Z,3.53
2023-04-14T12:28:45.003Z,3.43
2023-04-14T12:31:11.905Z,2.90
2023-04-14T12:33:40.958Z,2.70
2023-04-14T12:36:10.201Z,2.60
2023-04-14T12:38:39.920Z,2.50
2023-04-14T12:41:06.809Z,2.50
2023-04-14T12:43:40.701Z,2.30
2023-04-14T12:46:08.075Z,2.10
2023-04-14T12:48:48.376Z,2.17
2023-04-14T12:51:16.757Z,2.53
2023-04-14T12:53:44.476Z,2.20
2023-04-14T12:56:17.472Z,2.07
2023-04-14T12:58:48.570Z,2.13
2023-04-14T13:01:18.106Z,2.53
2023-04-14T13:03:52.517Z,2.20
2023-04-14T13:06:22.960Z,2.40
2023-04-14T13:08:51.125Z,2.20
2023-04-14T13:11:18.600Z,2.33
2023-04-14T13:13:48.429Z,2.50
2023-04-14T13:16:21.120Z,2.50
2023-04-14T13:18:48.590Z,2.50
2023-04-14T13:21:17.734Z,3.00
2023-04-14T13:23:46.971Z,3.20
2023-04-14T13:26:13.787Z,2.80
2023-04-14T13:28:42.675Z,3.20
2023-04-14T13:31:13.248Z,3.30
2023-04-14T13:33:42.389Z,3.30
2023-04-14T13:36:09.222Z,3.20
2023-04-14T13:38:38.222Z,3.37
2023-04-14T13:41:05.055Z,2.97
2023-04-14T13:43:33.054Z,3.13
2023-04-14T13:46:00.085Z,2.97
2023-04-14T13:48:30.528Z,2.90
2023-04-14T13:50:59.357Z,3.00
2023-04-14T13:53:26.282Z,3.03
2023-04-14T13:55:57.996Z,2.27
2023-04-14T13:58:25.450Z,3.13
2023-04-14T14:00:55.380Z,2.77
2023-04-14T14:03:22.571Z,3.07
2023-04-14T14:05:49.552Z,2.87
2023-04-14T14:08:17.137Z,2.87
2023-04-14T14:10:46.244Z,2.80
2023-04-14T14:13:13.168Z,2.80
2023-04-14T14:15:39.981Z,2.70
2023-04-14T14:18:07.058Z,2.50
2023-04-14T14:20:36.438Z,2.77
2023-04-14T14:23:03.404Z,2.70
2023-04-14T14:25:32.659Z,2.87
2023-04-14T14:28:01.867Z,2.73
2023-04-14T14:30:31.411Z,2.90
2023-04-14T14:33:03.079Z,3.07
2023-04-14T14:35:29.926Z,3.00
2023-04-14T14:37:59.620Z,3.50
2023-04-14T14:40:28.324Z,3.03
2023-04-14T14:42:55.649Z,3.40
2023-04-14T14:45:30.287Z,3.03
2023-04-14T14:48:00.630Z,3.53
2023-04-14T14:50:27.935Z,3.23
2023-04-14T14:52:57.251Z,3.10
2023-04-14T14:55:27.328Z,3.53
2023-04-14T14:57:54.551Z,2.83
2023-04-14T15:00:21.798Z,2.70
2023-04-14T15:02:48.701Z,3.33
2023-04-14T15:05:15.697Z,3.37
2023-04-14T15:07:45.234Z,3.43
2023-04-14T15:10:12.028Z,3.50
2023-04-14T15:12:38.880Z,3.77
2023-04-14T15:15:07.466Z,3.23
2023-04-14T15:17:34.642Z,3.67
2023-04-14T15:20:04.619Z,3.20
2023-04-14T15:22:32.281Z,3.20
2023-04-14T15:24:59.537Z,3.23
2023-04-14T15:27:26.769Z,3.57
2023-04-14T15:29:54.707Z,3.60
2023-04-14T15:32:26.562Z,3.87
2023-04-14T15:34:54.362Z,4.77
2023-04-14T15:37:23.785Z,4.37
2023-04-14T15:39:53.104Z,5.10
2023-04-14T15:42:22.106Z,4.73
2023-04-14T15:44:50.383Z,4.57
2023-04-14T15:47:19.459Z,4.80
2023-04-14T15:49:49.995Z,4.47
2023-04-14T15:52:21.646Z,4.27
2023-04-14T15:54:48.385Z,3.93
2023-04-14T15:57:16.781Z,4.87
2023-04-14T15:59:46.262Z,4.93
2023-04-14T16:02:13.552Z,4.60
2023-04-14T16:04:40.906Z,4.43
2023-04-14T16:07:07.721Z,4.60
2023-04-14T16:09:35.324Z,4.57
2023-04-14T16:12:04.714Z,4.57
2023-04-14T16:14:32.455Z,4.83
2023-04-14T16:16:59.194Z,4.63
2023-04-14T16:19:28.315Z,4.20
2023-04-14T16:21:56.935Z,4.70
2023-04-14T16:24:24.590Z,4.40
2023-04-14T16:26:51.866Z,4.00
2023-04-14T16:29:21.320Z,4.43
2023-04-14T16:31:48.120Z,4.13
2023-04-14T16:34:15.599Z,4.37
2023-04-14T16:36:46.526Z,4.37
2023-04-14T16:39:13.895Z,3.97
2023-04-14T16:41:41.155Z,3.60
2023-04-14T16:44:07.908Z,3.90
2023-04-14T16:46:35.085Z,4.63
2023-04-14T16:49:04.283Z,4.20
2023-04-14T16:51:33.689Z,4.40
2023-04-14T16:54:00.612Z,4.60
2023-04-14T16:56:28.115Z,4.37
2023-04-14T16:58:54.916Z,4.47
2023-04-14T17:01:22.212Z,3.53
2023-04-14T17:03:49.574Z,4.10
2023-04-14T17:06:18.611Z,4.33
2023-04-14T17:08:45.597Z,4.00
2023-04-14T17:11:12.323Z,3.93
2023-04-14T17:13:39.783Z,4.23
2023-04-14T17:16:09.626Z,4.60
2023-04-14T17:18:38.742Z,4.37
2023-04-14T17:21:06.246Z,4.00
2023-04-14T17:23:37.318Z,4.60
2023-04-14T17:26:04.508Z,5.03
2023-04-14T17:28:33.758Z,5.00
2023-04-14T17:31:00.939Z,4.77
2023-04-14T17:33:27.823Z,4.70
2023-04-14T17:35:55.621Z,5.17
2023-04-14T17:38:22.416Z,4.37
2023-04-14T17:40:50.689Z,5.43
2023-04-14T17:43:17.485Z,5.23
2023-04-14T17:45:50.162Z,5.07
2023-04-14T17:48:22.297Z,5.27
2023-04-14T17:50:49.454Z,5.60
2023-04-14T17:53:31.515Z,6.20
2023-04-14T17:56:00.892Z,5.53
2023-04-14T17:58:27.974Z,5.77
2023-04-14T18:00:57.467Z,5.60
2023-04-14T18:03:24.438Z,5.37
2023-04-14T18:05:56.562Z,6.17
2023-04-14T18:08:23.467Z,5.97
2023-04-14T18:10:50.559Z,6.37
2023-04-14T18:13:18.057Z,6.27
2023-04-14T18:15:49.007Z,6.50
2023-04-14T18:18:16.165Z,7.10
2023-04-14T18:20:45.298Z,6.83
2023-04-14T18:23:12.763Z,7.20
2023-04-14T18:28:09.614Z,6.60
2023-04-14T18:30:38.920Z,6.73
2023-04-14T18:33:06.318Z,7.27
2023-04-14T18:35:33.694Z,7.63
2023-04-14T18:38:01.274Z,7.83
2023-04-14T18:40:28.017Z,7.17
2023-04-14T18:42:57.464Z,7.67
2023-04-14T18:45:24.668Z,8.20
2023-04-14T18:47:53.990Z,7.60
2023-04-14T18:50:21.566Z,7.30
2023-04-14T18:52:49.222Z,7.13
2023-04-14T18:55:16.410Z,6.87
2023-04-14T18:57:44.146Z,7.13
2023-04-14T19:00:13.417Z,8.57
2023-04-14T19:02:44.816Z,7.43
2023-04-14T19:05:12.132Z,7.57
2023-04-14T19:07:38.883Z,7.40
2023-04-14T19:10:08.570Z,7.00
2023-04-14T19:12:40.492Z,7.57
2023-04-14T19:15:07.866Z,7.30
2023-04-14T19:17:34.767Z,7.00
2023-04-14T19:20:04.625Z,6.90
2023-04-14T19:22:35.999Z,6.67
2023-04-14T19:25:02.805Z,6.10
2023-04-14T19:27:33.124Z,6.80
2023-04-14T19:30:03.725Z,6.50
2023-04-14T19:32:33.408Z,6.87
2023-04-14T19:35:00.657Z,6.77
2023-04-14T19:37:28.511Z,6.40
2023-04-14T19:39:59.943Z,6.60
2023-04-14T19:42:26.746Z,6.47
2023-04-14T19:44:53.924Z,7.03
2023-04-14T19:47:21.028Z,6.13
2023-04-14T19:49:48.054Z,6.87
2023-04-14T19:52:17.424Z,6.63
2023-04-14T19:54:44.672Z,6.67
2023-04-14T19:57:11.488Z,6.80
2023-04-14T19:59:38.227Z,6.57
2023-04-14T20:02:05.874Z,6.50
2023-04-14T20:04:32.899Z,6.70
2023-04-14T20:06:59.748Z,7.00
2023-04-14T20:09:26.485Z,6.87
2023-04-14T20:11:57.773Z,6.70
2023-04-14T20:14:24.614Z,6.70
2023-04-14T20:16:51.843Z,6.40
2023-04-14T20:19:18.633Z,7.13
2023-04-14T20:21:45.782Z,6.57
2023-04-14T20:24:13.489Z,6.80
2023-04-14T20:26:43.472Z,6.80
2023-04-14T20:29:10.461Z,6.10
2023-04-14T20:31:39.056Z,6.90
2023-04-14T20:34:06.297Z,6.37
2023-04-14T20:36:35.980Z,6.93
2023-04-14T20:39:05.687Z,6.97
2023-04-14T20:41:33.776Z,6.70
2023-04-14T20:44:00.738Z,6.67
2023-04-14T20:46:28.063Z,6.73
2023-04-14T20:48:55.646Z,7.20
2023-04-14T20:51:22.727Z,6.27
2023-04-14T20:53:50.276Z,7.00
2023-04-14T20:56:19.670Z,7.40
2023-04-14T20:58:49.254Z,7.50
2023-04-14T21:01:16.671Z,7.37
2023-04-14T21:03:46.139Z,7.57
2023-04-14T21:06:12.970Z,6.80
2023-04-14T21:08:40.166Z,7.00
2023-04-14T21:11:17.000Z,6.97
2023-04-14T21:15:30.207Z,7.30
2023-04-14T21:16:38.015Z,7.37
2023-04-14T21:19:05.609Z,6.93
2023-04-14T21:21:33.392Z,7.93
2023-04-14T21:24:00.661Z,7.50
2023-04-14T21:26:28.595Z,7.27
2023-04-14T21:28:57.907Z,7.77
2023-04-14T21:31:24.716Z,7.43
2023-04-14T21:33:53.660Z,7.60
2023-04-14T21:36:21.990Z,8.00
2023-04-14T21:38:49.195Z,7.17
2023-04-14T21:41:16.351Z,7.47
2023-04-14T21:43:45.200Z,7.40
2023-04-14T21:46:14.797Z,8.17
2023-04-14T21:48:44.537Z,7.17
2023-04-14T21:51:11.319Z,7.90
2023-04-14T21:53:38.638Z,7.83
2023-04-14T21:56:10.365Z,7.53
2023-04-14T21:58:41.278Z,7.30
2023-04-14T22:01:10.725Z,7.87
2023-04-14T22:03:40.614Z,7.97
2023-04-14T22:06:07.833Z,8.03
2023-04-14T22:08:35.002Z,7.80
2023-04-14T22:11:04.856Z,7.57
2023-04-14T22:13:32.077Z,7.40
2023-04-14T22:15:59.266Z,8.13
2023-04-14T22:18:28.759Z,7.33
2023-04-14T22:21:00.131Z,7.80
2023-04-14T22:23:29.761Z,7.77
2023-04-14T22:25:58.945Z,8.03
2023-04-14T22:28:28.095Z,7.40
2023-04-14T22:30:57.229Z,7.17
2023-04-14T22:33:26.681Z,7.70
2023-04-14T22:35:53.620Z,7.53
2023-04-14T22:38:20.725Z,7.77
2023-04-14T22:40:48.793Z,8.20
2023-04-14T22:43:17.016Z,8.33
2023-04-14T22:45:44.218Z,7.93
2023-04-14T22:48:11.596Z,7.87
2023-04-14T22:50:38.817Z,7.10
2023-04-14T22:53:05.792Z,7.07
2023-04-14T22:55:32.912Z,7.57
2023-04-14T22:58:02.589Z,7.33
2023-04-14T23:00:29.792Z,7.40
2023-04-14T23:02:59.349Z,7.63
2023-04-14T23:05:26.360Z,7.63
2023-04-14T23:07:53.107Z,8.00
2023-04-14T23:10:20.289Z,7.50
2023-04-14T23:12:49.443Z,7.20
2023-04-14T23:15:18.781Z,7.43
2023-04-14T23:17:48.198Z,7.40
2023-04-14T23:20:15.681Z,7.80
2023-04-14T23:22:42.898Z,7.97
2023-04-14T23:25:12.205Z,8.10
2023-04-14T23:27:41.154Z,7.87
2023-04-14T23:30:08.868Z,7.47
2023-04-14T23:32:35.963Z,8.07
2023-04-14T23:35:05.231Z,8.27
2023-04-14T23:37:32.399Z,7.73
2023-04-14T23:40:01.307Z,7.83
2023-04-14T23:42:28.089Z,7.67
2023-04-14T23:44:55.755Z,8.17
2023-04-14T23:47:22.746Z,7.83
2023-04-14T23:49:49.995Z,8.53
2023-04-14T23:52:18.937Z,8.50
2023-04-14T23:54:48.312Z,8.27
2023-04-14T23:57:15.541Z,7.80
2023-04-14T23:59:43.190Z,8.37
